Observation data for Anton on 11/17/2019      Previous  Date       Current Mesonet Observations  Soil Data  Daily Summary Page  Observations in Plain Language
KAOS 170600Z 04001KT 05/00 A2997 RMK A01 T00490000  RH  071%=      5-min Rain = 0
KAOS 170605Z 04000KT 05/00 A2997 RMK A01 T00520000  RH  070%=      5-min Rain = 0
KAOS 170610Z 04001KT 04/M00 A2998 RMK A01 T00441004  RH  072%=      5-min Rain = 0
KAOS 170615Z 04000KT 04/M00 A2998 RMK A01 T00431004  RH  073%=      5-min Rain = 0
KAOS 170620Z 00000KT 04/M00 A2997 RMK A01 T00421004  RH  073%=      5-min Rain = 0
KAOS 170625Z 28002KT 04/M00 A2997 RMK A01 T00431003  RH  073%=      5-min Rain = 0
KAOS 170630Z 32003KT 04/M01 A2997 RMK A01 T00401005  RH  073%=      5-min Rain = 0
KAOS 170635Z 32006KT 04/M00 A2998 RMK A01 T00401003  RH  074%=      5-min Rain = 0
KAOS 170640Z 33007KT 04/M00 A2998 RMK A01 T00401004  RH  074%=      5-min Rain = 0
KAOS 170645Z 33006KT 04/M00 A2998 RMK A01 T00401004  RH  074%=      5-min Rain = 0
KAOS 170650Z 33005KT 03/M01 A2998 RMK A01 T00341008  RH  075%=      5-min Rain = 0
KAOS 170655Z 34005KT 03/M01 A2998 RMK A01 T00301008  RH  077%=      5-min Rain = 0
KAOS 170700Z 33003KT 03/M01 A2998 RMK A01 T00281008  RH  078%=      5-min Rain = 0
KAOS 170705Z 34002KT 03/M01 A2998 RMK A01 T00271009  RH  078%=      5-min Rain = 0
KAOS 170710Z 33001KT 03/M01 A2998 RMK A01 T00261010  RH  078%=      5-min Rain = 0
KAOS 170715Z 00000KT 02/M01 A2998 RMK A01 T00241010  RH  079%=      5-min Rain = 0
KAOS 170720Z 00000KT 02/M01 A2998 RMK A01 T00241009  RH  079%=      5-min Rain = 0
KAOS 170725Z 23001KT 03/M01 A2998 RMK A01 T00251010  RH  079%=      5-min Rain = 0
KAOS 170730Z 23002KT 02/M01 A2998 RMK A01 T00201013  RH  079%=      5-min Rain = 0
KAOS 170735Z 23003KT 02/M01 A2997 RMK A01 T00211010  RH  081%=      5-min Rain = 0
KAOS 170740Z 24003KT 02/M02 A2997 RMK A01 T00181016  RH  079%=      5-min Rain = 0
KAOS 170745Z 24003KT 02/M02 A2997 RMK A01 T00171015  RH  080%=      5-min Rain = 0
KAOS 170750Z 24004KT 02/M02 A2997 RMK A01 T00171015  RH  080%=      5-min Rain = 0
KAOS 170755Z 24005KT 02/M01 A2996 RMK A01 T00211011  RH  080%=      5-min Rain = 0
KAOS 170800Z 25005KT 02/M01 A2997 RMK A01 T00241010  RH  079%=      5-min Rain = 0
KAOS 170805Z 26005KT 02/M01 A2997 RMK A01 T00221013  RH  078%=      5-min Rain = 0
KAOS 170810Z 27006KT 02/M02 A2997 RMK A01 T00191015  RH  079%=      5-min Rain = 0
KAOS 170815Z 28008KT 02/M01 A2997 RMK A01 T00181013  RH  080%=      5-min Rain = 0
KAOS 170820Z 29008KT 02/M01 A2997 RMK A01 T00241007  RH  081%=      5-min Rain = 0
KAOS 170825Z 30007KT 03/M01 A2998 RMK A01 T00291006  RH  079%=      5-min Rain = 0
KAOS 170830Z 31007KT 03/M01 A2998 RMK A01 T00321005  RH  078%=      5-min Rain = 0
KAOS 170835Z 30009KT 03/M01 A2998 RMK A01 T00291007  RH  078%=      5-min Rain = 0
KAOS 170840Z 31009KT 03/M01 A2999 RMK A01 T00321006  RH  077%=      5-min Rain = 0
KAOS 170845Z 31011KT 03/M01 A2999 RMK A01 T00331006  RH  077%=      5-min Rain = 0
KAOS 170850Z 32011KT 04/M01 A2999 RMK A01 T00351006  RH  075%=      5-min Rain = 0
KAOS 170855Z 33011KT 04/M01 A2999 RMK A01 T00371006  RH  074%=      5-min Rain = 0
KAOS 170900Z 33011KT 04/M01 A2999 RMK A01 T00381006  RH  074%=      5-min Rain = 0
KAOS 170905Z 34011KT 04/M01 A2999 RMK A01 T00421006  RH  072%=      5-min Rain = 0
KAOS 170910Z 35013KT 05/M00 A2999 RMK A01 T00501004  RH  069%=      5-min Rain = 0
KAOS 170915Z 35013KT 06/M00 A2999 RMK A01 T00571004  RH  065%=      5-min Rain = 0
KAOS 170920Z 36014KT 06/M01 A2999 RMK A01 T00601005  RH  064%=      5-min Rain = 0
KAOS 170925Z 00014KT 06/M00 A2999 RMK A01 T00631004  RH  063%=      5-min Rain = 0
KAOS 170930Z 36014KT 07/M00 A30 RMK A01 T00661004  RH  062%=      5-min Rain = 0
KAOS 170935Z 35014KT 07/M00 A3001 RMK A01 T00681004  RH  060%=      5-min Rain = 0
KAOS 170940Z 36016G22KT 07/M01 A3001 RMK A01 T00721005  RH  059%=      5-min Rain = 0
KAOS 170945Z 36017KT 08/M01 A3002 RMK A01 T00771008  RH  055%=      5-min Rain = 0
KAOS 170950Z 35015G20KT 08/M01 A3002 RMK A01 T00781010  RH  054%=      5-min Rain = 0
KAOS 170955Z 35015G21KT 08/M01 A3003 RMK A01 T00781011  RH  054%=      5-min Rain = 0
KAOS 171000Z 35017G22KT 08/M01 A3003 RMK A01 T00821012  RH  052%=      5-min Rain = 0
KAOS 171005Z 36018G25KT 08/M01 A3004 RMK A01 T00831014  RH  051%=      5-min Rain = 0
KAOS 171010Z 35018G23KT 08/M02 A3004 RMK A01 T00841015  RH  050%=      5-min Rain = 0
KAOS 171015Z 35020G26KT 08/M02 A3004 RMK A01 T00841016  RH  050%=      5-min Rain = 0
KAOS 171020Z 36020G25KT 09/M02 A3003 RMK A01 T00851016  RH  050%=      5-min Rain = 0
KAOS 171025Z 00019KT 08/M02 A3003 RMK A01 T00831016  RH  050%=      5-min Rain = 0
KAOS 171030Z 00017G23KT 08/M02 A3003 RMK A01 T00821016  RH  051%=      5-min Rain = 0
KAOS 171035Z 01017G22KT 08/M02 A3004 RMK A01 T00811015  RH  051%=      5-min Rain = 0
KAOS 171040Z 01017G23KT 08/M02 A3004 RMK A01 T00821015  RH  051%=      5-min Rain = 0
KAOS 171045Z 00017KT 08/M02 A3004 RMK A01 T00801015  RH  052%=      5-min Rain = 0
KAOS 171050Z 00017G23KT 08/M01 A3005 RMK A01 T00811014  RH  052%=      5-min Rain = 0
KAOS 171055Z 36017G22KT 08/M01 A3005 RMK A01 T00791013  RH  053%=      5-min Rain = 0
KAOS 171100Z 36017G22KT 08/M01 A3006 RMK A01 T00781012  RH  053%=      5-min Rain = 0
KAOS 171105Z 36019G27KT 08/M01 A3006 RMK A01 T00781012  RH  054%=      5-min Rain = 0
KAOS 171110Z 36019G25KT 08/M01 A3007 RMK A01 T00781011  RH  054%=      5-min Rain = 0
KAOS 171115Z 00020G25KT 08/M01 A3007 RMK A01 T00771011  RH  054%=      5-min Rain = 0
KAOS 171120Z 00018G23KT 08/M01 A3007 RMK A01 T00751011  RH  055%=      5-min Rain = 0
KAOS 171125Z 36018G23KT 07/M01 A3007 RMK A01 T00731010  RH  056%=      5-min Rain = 0
KAOS 171130Z 00017G22KT 07/M01 A3007 RMK A01 T00721010  RH  056%=      5-min Rain = 0
KAOS 171135Z 00017G22KT 07/M01 A3008 RMK A01 T00711010  RH  057%=      5-min Rain = 0
KAOS 171140Z 00017KT 07/M01 A3008 RMK A01 T00701009  RH  058%=      5-min Rain = 0
KAOS 171145Z 00015G20KT 07/M01 A3008 RMK A01 T00681009  RH  058%=      5-min Rain = 0
KAOS 171150Z 36015KT 07/M01 A3009 RMK A01 T00671009  RH  059%=      5-min Rain = 0
KAOS 171155Z 36016KT 07/M01 A3009 RMK A01 T00661008  RH  059%=      5-min Rain = 0
KAOS 171200Z 00016G22KT 07/M01 A3009 RMK A01 T00661008  RH  060%=      5-min Rain = 0
KAOS 171205Z 36017KT 07/M01 A3009 RMK A01 T00651008  RH  060%=      5-min Rain = 0
KAOS 171210Z 36016KT 06/M01 A301 RMK A01 T00641008  RH  061%=      5-min Rain = 0
KAOS 171215Z 35017KT 06/M01 A301 RMK A01 T00631007  RH  061%=      5-min Rain = 0
KAOS 171220Z 35017KT 06/M01 A301 RMK A01 T00621007  RH  062%=      5-min Rain = 0
KAOS 171225Z 35017KT 06/M01 A3011 RMK A01 T00611006  RH  062%=      5-min Rain = 0
KAOS 171230Z 35016KT 06/M01 A3011 RMK A01 T00601006  RH  063%=      5-min Rain = 0
KAOS 171235Z 35017G22KT 06/M01 A3012 RMK A01 T00591005  RH  064%=      5-min Rain = 0
KAOS 171240Z 35016G22KT 06/M01 A3012 RMK A01 T00581005  RH  065%=      5-min Rain = 0
KAOS 171245Z 36016G22KT 06/M00 A3013 RMK A01 T00581004  RH  065%=      5-min Rain = 0
KAOS 171250Z 36016G22KT 06/M00 A3013 RMK A01 T00581003  RH  066%=      5-min Rain = 0
KAOS 171255Z 36017G23KT 06/M00 A3013 RMK A01 T00581002  RH  066%=      5-min Rain = 0
KAOS 171300Z 36016G21KT 06/M00 A3014 RMK A01 T00571002  RH  067%=      5-min Rain = 0
KAOS 171305Z 36016G22KT 06/M00 A3014 RMK A01 T00571001  RH  067%=      5-min Rain = 0
KAOS 171310Z 36015G20KT 06/M00 A3014 RMK A01 T00561001  RH  068%=      5-min Rain = 0
KAOS 171315Z 00016G21KT 06/M00 A3015 RMK A01 T00551001  RH  068%=      5-min Rain = 0
KAOS 171320Z 00015G21KT 06/00 A3015 RMK A01 T005500-0  RH  068%=      5-min Rain = 0
KAOS 171325Z 00015KT 05/00 A3015 RMK A01 T005400-0  RH  069%=      5-min Rain = 0
KAOS 171330Z 00014KT 05/00 A3015 RMK A01 T005300-0  RH  069%=      5-min Rain = 0
KAOS 171335Z 00014KT 05/00 A3015 RMK A01 T00530000  RH  069%=      5-min Rain = 0
KAOS 171340Z 00016KT 05/00 A3016 RMK A01 T00540001  RH  069%=      5-min Rain = 0
KAOS 171345Z 36014KT 06/00 A3016 RMK A01 T00550001  RH  069%=      5-min Rain = 0
KAOS 171350Z 36014G19KT 06/00 A3016 RMK A01 T00550002  RH  069%=      5-min Rain = 0
KAOS 171355Z 36014KT 06/00 A3017 RMK A01 T00560002  RH  069%=      5-min Rain = 0
KAOS 171400Z 36015KT 06/00 A3017 RMK A01 T00570003  RH  069%=      5-min Rain = 0
KAOS 171405Z 36014KT 06/00 A3017 RMK A01 T00580003  RH  069%=      5-min Rain = 0
KAOS 171410Z 35015G20KT 06/00 A3018 RMK A01 T00580003  RH  068%=      5-min Rain = 0
KAOS 171415Z 36015G20KT 06/00 A3018 RMK A01 T00590003  RH  068%=      5-min Rain = 0
KAOS 171420Z 36015G22KT 06/00 A3018 RMK A01 T00600004  RH  068%=      5-min Rain = 0
KAOS 171425Z 36014G19KT 06/00 A3018 RMK A01 T00610004  RH  068%=      5-min Rain = 0
KAOS 171430Z 36016G23KT 06/00 A3018 RMK A01 T00620004  RH  067%=      5-min Rain = 0
KAOS 171435Z 36016G21KT 06/01 A3018 RMK A01 T00640005  RH  067%=      5-min Rain = 0
KAOS 171440Z 00018KT 07/01 A3019 RMK A01 T00650005  RH  066%=      5-min Rain = 0
KAOS 171445Z 00016G21KT 07/01 A3019 RMK A01 T00670005  RH  066%=      5-min Rain = 0
KAOS 171450Z 36016G22KT 07/01 A3019 RMK A01 T00680005  RH  065%=      5-min Rain = 0
KAOS 171455Z 01016G22KT 07/01 A302 RMK A01 T00700006  RH  064%=      5-min Rain = 0
KAOS 171500Z 01015KT 07/01 A302 RMK A01 T00720006  RH  064%=      5-min Rain = 0
KAOS 171505Z 01015G20KT 07/01 A302 RMK A01 T00740006  RH  063%=      5-min Rain = 0
KAOS 171510Z 00017G22KT 08/01 A302 RMK A01 T00750006  RH  062%=      5-min Rain = 0
KAOS 171515Z 01016KT 08/01 A302 RMK A01 T00760006  RH  062%=      5-min Rain = 0
KAOS 171520Z 01017G25KT 08/01 A302 RMK A01 T00780007  RH  062%=      5-min Rain = 0
KAOS 171525Z 01017G22KT 08/01 A302 RMK A01 T00780006  RH  061%=      5-min Rain = 0
KAOS 171530Z 01015G20KT 08/01 A302 RMK A01 T00800007  RH  061%=      5-min Rain = 0
KAOS 171535Z 01016KT 08/01 A3021 RMK A01 T00830007  RH  060%=      5-min Rain = 0
KAOS 171540Z 02017G22KT 08/01 A3021 RMK A01 T00830007  RH  060%=      5-min Rain = 0
KAOS 171545Z 02017KT 09/01 A3021 RMK A01 T00850007  RH  059%=      5-min Rain = 0
KAOS 171550Z 02017G23KT 09/01 A3021 RMK A01 T00860007  RH  058%=      5-min Rain = 0
KAOS 171555Z 01015G20KT 09/01 A3021 RMK A01 T00880008  RH  058%=      5-min Rain = 0
KAOS 171600Z 01015KT 09/01 A3021 RMK A01 T00900009  RH  057%=      5-min Rain = 0
KAOS 171605Z 01015KT 09/01 A3021 RMK A01 T00920009  RH  057%=      5-min Rain = 0
KAOS 171610Z 01012G17KT 10/01 A3021 RMK A01 T00950011  RH  056%=      5-min Rain = 0
KAOS 171615Z 02016G21KT 10/01 A3021 RMK A01 T00960009  RH  055%=      5-min Rain = 0
KAOS 171620Z 01014KT 10/01 A3021 RMK A01 T00990011  RH  055%=      5-min Rain = 0
KAOS 171625Z 02016G22KT 10/01 A3021 RMK A01 T01010011  RH  054%=      5-min Rain = 0
KAOS 171630Z 02016KT 10/01 A3021 RMK A01 T01010010  RH  054%=      5-min Rain = 0
KAOS 171635Z 01015KT 10/01 A3021 RMK A01 T01010010  RH  054%=      5-min Rain = 0
KAOS 171640Z 00016KT 10/01 A3021 RMK A01 T01010010  RH  054%=      5-min Rain = 0
KAOS 171645Z 01013KT 10/01 A3021 RMK A01 T01040012  RH  054%=      5-min Rain = 0
KAOS 171650Z 01013G18KT 11/01 A3021 RMK A01 T01070013  RH  053%=      5-min Rain = 0
KAOS 171655Z 01012G17KT 11/01 A3021 RMK A01 T01090013  RH  052%=      5-min Rain = 0
KAOS 171700Z 01012KT 11/01 A302 RMK A01 T01070013  RH  053%=      5-min Rain = 0
KAOS 171705Z 01012G17KT 11/01 A302 RMK A01 T01090013  RH  052%=      5-min Rain = 0
KAOS 171710Z 00012G17KT 11/01 A302 RMK A01 T01120014  RH  052%=      5-min Rain = 0
KAOS 171715Z 00012KT 11/01 A302 RMK A01 T01130013  RH  051%=      5-min Rain = 0
KAOS 171720Z 01012KT 11/01 A3019 RMK A01 T01140014  RH  051%=      5-min Rain = 0
KAOS 171725Z 01014KT 12/01 A302 RMK A01 T01170013  RH  050%=      5-min Rain = 0
KAOS 171730Z 01014KT 12/01 A302 RMK A01 T01170013  RH  050%=      5-min Rain = 0
KAOS 171735Z 00013KT 12/01 A3019 RMK A01 T01180013  RH  049%=      5-min Rain = 0
KAOS 171740Z 36013G18KT 12/01 A3019 RMK A01 T01180013  RH  049%=      5-min Rain = 0
KAOS 171745Z 36013KT 12/01 A3018 RMK A01 T01200013  RH  049%=      5-min Rain = 0
KAOS 171750Z 01013KT 12/01 A3018 RMK A01 T01230014  RH  048%=      5-min Rain = 0
KAOS 171755Z 36014KT 12/01 A3018 RMK A01 T01240013  RH  048%=      5-min Rain = 0
KAOS 171800Z 36014KT 13/01 A3017 RMK A01 T01270013  RH  047%=      5-min Rain = 0
KAOS 171805Z 36012KT 13/01 A3017 RMK A01 T01260013  RH  047%=      5-min Rain = 0
KAOS 171810Z 00012KT 13/01 A3017 RMK A01 T01280014  RH  047%=      5-min Rain = 0
KAOS 171815Z 00014KT 13/01 A3017 RMK A01 T01290013  RH  046%=      5-min Rain = 0
KAOS 171820Z 01013KT 13/01 A3016 RMK A01 T01310014  RH  046%=      5-min Rain = 0
KAOS 171825Z 00012KT 13/02 A3016 RMK A01 T01340015  RH  045%=      5-min Rain = 0
KAOS 171830Z 01012KT 14/01 A3016 RMK A01 T01360014  RH  044%=      5-min Rain = 0
KAOS 171835Z 01011KT 13/02 A3016 RMK A01 T01340015  RH  045%=      5-min Rain = 0
KAOS 171840Z 01011G16KT 14/02 A3015 RMK A01 T01360015  RH  044%=      5-min Rain = 0
KAOS 171845Z 00011KT 14/02 A3015 RMK A01 T01410016  RH  043%=      5-min Rain = 0
KAOS 171850Z 01013KT 14/01 A3015 RMK A01 T01430014  RH  042%=      5-min Rain = 0
KAOS 171855Z 02012G17KT 14/01 A3015 RMK A01 T01410013  RH  042%=      5-min Rain = 0
KAOS 171900Z 35011KT 14/01 A3015 RMK A01 T01400014  RH  043%=      5-min Rain = 0
KAOS 171905Z 36013G19KT 14/01 A3015 RMK A01 T01430014  RH  042%=      5-min Rain = 0
KAOS 171910Z 02010KT 14/01 A3015 RMK A01 T01420014  RH  042%=      5-min Rain = 0
KAOS 171915Z 01012KT 15/01 A3015 RMK A01 T01450013  RH  041%=      5-min Rain = 0
KAOS 171920Z 00010KT 14/01 A3015 RMK A01 T01440012  RH  041%=      5-min Rain = 0
KAOS 171925Z 35008G14KT 14/01 A3015 RMK A01 T01440012  RH  041%=      5-min Rain = 0
KAOS 171930Z 00011KT 15/01 A3015 RMK A01 T01460014  RH  041%=      5-min Rain = 0
KAOS 171935Z 35013KT 15/01 A3014 RMK A01 T01460013  RH  041%=      5-min Rain = 0
KAOS 171940Z 00012G18KT 15/01 A3014 RMK A01 T01460013  RH  041%=      5-min Rain = 0
KAOS 171945Z 00012G17KT 15/02 A3014 RMK A01 T01490015  RH  041%=      5-min Rain = 0
KAOS 171950Z 01013G18KT 15/02 A3014 RMK A01 T01530015  RH  040%=      5-min Rain = 0
KAOS 171955Z 00011G16KT 15/01 A3014 RMK A01 T01490014  RH  041%=      5-min Rain = 0
KAOS 172000Z 00012KT 15/02 A3014 RMK A01 T01530015  RH  040%=      5-min Rain = 0
KAOS 172005Z 36011KT 15/02 A3014 RMK A01 T01500015  RH  041%=      5-min Rain = 0
KAOS 172010Z 01010G16KT 15/02 A3013 RMK A01 T01510015  RH  040%=      5-min Rain = 0
KAOS 172015Z 35010KT 15/01 A3013 RMK A01 T01490014  RH  041%=      5-min Rain = 0
KAOS 172020Z 36010KT 15/02 A3012 RMK A01 T01530016  RH  040%=      5-min Rain = 0
KAOS 172025Z 35010KT 15/01 A3012 RMK A01 T01510014  RH  040%=      5-min Rain = 0
KAOS 172030Z 35008KT 15/02 A3012 RMK A01 T01510015  RH  040%=      5-min Rain = 0
KAOS 172035Z 35005KT 15/02 A3011 RMK A01 T01510015  RH  040%=      5-min Rain = 0
KAOS 172040Z 02007KT 15/01 A3011 RMK A01 T01530014  RH  039%=      5-min Rain = 0
KAOS 172045Z 35004KT 15/01 A3011 RMK A01 T01510012  RH  040%=      5-min Rain = 0
KAOS 172050Z 34005KT 15/01 A3011 RMK A01 T01510010  RH  039%=      5-min Rain = 0
KAOS 172055Z 35005KT 15/01 A3011 RMK A01 T01500012  RH  040%=      5-min Rain = 0
KAOS 172100Z 36004KT 15/01 A3011 RMK A01 T01520012  RH  039%=      5-min Rain = 0
KAOS 172105Z 33004KT 15/01 A3011 RMK A01 T01530014  RH  040%=      5-min Rain = 0
KAOS 172110Z 00004KT 15/01 A3011 RMK A01 T01530012  RH  039%=      5-min Rain = 0
KAOS 172115Z 03005KT 15/01 A3011 RMK A01 T01540012  RH  039%=      5-min Rain = 0
KAOS 172120Z 03004KT 15/01 A3011 RMK A01 T01530011  RH  039%=      5-min Rain = 0
KAOS 172125Z 03005KT 15/01 A301 RMK A01 T01530011  RH  039%=      5-min Rain = 0
KAOS 172130Z 06004KT 15/01 A301 RMK A01 T01510010  RH  039%=      5-min Rain = 0
KAOS 172135Z 02002KT 15/01 A301 RMK A01 T01520011  RH  039%=      5-min Rain = 0
KAOS 172140Z 04001KT 16/01 A301 RMK A01 T01570012  RH  038%=      5-min Rain = 0
KAOS 172145Z 05002KT 15/01 A301 RMK A01 T01540010  RH  038%=      5-min Rain = 0
KAOS 172150Z 01001KT 16/01 A301 RMK A01 T01560010  RH  038%=      5-min Rain = 0
KAOS 172155Z 04001KT 16/01 A301 RMK A01 T01570011  RH  038%=      5-min Rain = 0
KAOS 172200Z 11002KT 16/01 A301 RMK A01 T01560010  RH  038%=      5-min Rain = 0
KAOS 172205Z 21002KT 16/01 A301 RMK A01 T01560011  RH  038%=      5-min Rain = 0
KAOS 172210Z 26002KT 16/01 A301 RMK A01 T01560010  RH  038%=      5-min Rain = 0
KAOS 172215Z 22002KT 16/01 A301 RMK A01 T01560010  RH  038%=      5-min Rain = 0
KAOS 172220Z 20002KT 16/01 A301 RMK A01 T01580010  RH  037%=      5-min Rain = 0
KAOS 172225Z 23002KT 16/01 A301 RMK A01 T01580011  RH  037%=      5-min Rain = 0
KAOS 172230Z 18002KT 16/01 A301 RMK A01 T01610011  RH  037%=      5-min Rain = 0
KAOS 172235Z 14003KT 16/01 A301 RMK A01 T01600010  RH  037%=      5-min Rain = 0
KAOS 172240Z 11002KT 16/01 A301 RMK A01 T01550009  RH  038%=      5-min Rain = 0
KAOS 172245Z 35001KT 16/01 A301 RMK A01 T01550010  RH  038%=      5-min Rain = 0
KAOS 172250Z 28002KT 16/01 A301 RMK A01 T01570011  RH  038%=      5-min Rain = 0
KAOS 172255Z 26001KT 16/01 A301 RMK A01 T01570011  RH  038%=      5-min Rain = 0
KAOS 172300Z 24001KT 16/01 A301 RMK A01 T01590009  RH  037%=      5-min Rain = 0
KAOS 172305Z 26001KT 16/01 A301 RMK A01 T01570009  RH  037%=      5-min Rain = 0
KAOS 172310Z 29002KT 16/01 A301 RMK A01 T01550010  RH  038%=      5-min Rain = 0
KAOS 172315Z 30003KT 15/01 A301 RMK A01 T01510009  RH  038%=      5-min Rain = 0
KAOS 172320Z 28002KT 15/01 A301 RMK A01 T01510009  RH  039%=      5-min Rain = 0
KAOS 172325Z 30002KT 15/01 A301 RMK A01 T01480009  RH  039%=      5-min Rain = 0
KAOS 172330Z 32002KT 14/01 A301 RMK A01 T01430008  RH  040%=      5-min Rain = 0
KAOS 172335Z 31003KT 14/01 A301 RMK A01 T01400007  RH  041%=      5-min Rain = 0
KAOS 172340Z 28003KT 13/01 A3011 RMK A01 T01330005  RH  042%=      5-min Rain = 0
KAOS 172345Z 28003KT 13/00 A3011 RMK A01 T01270003  RH  043%=      5-min Rain = 0
KAOS 172350Z 27003KT 12/00 A3011 RMK A01 T01200001  RH  044%=      5-min Rain = 0
KAOS 172355Z 28003KT 12/00 A3011 RMK A01 T01170002  RH  045%=      5-min Rain = 0
KAOS 180000Z 28003KT 12/00 A3011 RMK A01 T01150001  RH  046%=      5-min Rain = 0
KAOS 180005Z 28003KT 11/00 A3011 RMK A01 T01140001  RH  046%=      5-min Rain = 0
KAOS 180010Z 28002KT 11/00 A3011 RMK A01 T01130000  RH  046%=      5-min Rain = 0
KAOS 180015Z 28002KT 11/M00 A3011 RMK A01 T01071002  RH  047%=      5-min Rain = 0
KAOS 180020Z 29002KT 10/M00 A3011 RMK A01 T01031001  RH  049%=      5-min Rain = 0
KAOS 180025Z 29002KT 10/M00 A3011 RMK A01 T01031001  RH  049%=      5-min Rain = 0
KAOS 180030Z 29002KT 10/M00 A3011 RMK A01 T01011001  RH  050%=      5-min Rain = 0
KAOS 180035Z 29001KT 10/M01 A3011 RMK A01 T00961005  RH  050%=      5-min Rain = 0
KAOS 180040Z 29000KT 09/M00 A3011 RMK A01 T00921003  RH  052%=      5-min Rain = 0
KAOS 180045Z 00000KT 09/M00 A3011 RMK A01 T00921001  RH  053%=      5-min Rain = 0
KAOS 180050Z 28001KT 09/M00 A3011 RMK A01 T00941001  RH  052%=      5-min Rain = 0
KAOS 180055Z 13002KT 09/M00 A3011 RMK A01 T00921002  RH  052%=      5-min Rain = 0
KAOS 180100Z 13002KT 08/M01 A3011 RMK A01 T00831005  RH  054%=      5-min Rain = 0
KAOS 180105Z 13003KT 08/00 A3011 RMK A01 T007500-0  RH  059%=      5-min Rain = 0
KAOS 180110Z 14003KT 07/M00 A3011 RMK A01 T00741004  RH  058%=      5-min Rain = 0
KAOS 180115Z 14002KT 07/M01 A3011 RMK A01 T00731005  RH  058%=      5-min Rain = 0
KAOS 180120Z 15002KT 07/M00 A3011 RMK A01 T00701002  RH  061%=      5-min Rain = 0
KAOS 180125Z 16002KT 07/M00 A3011 RMK A01 T00701002  RH  061%=      5-min Rain = 0
KAOS 180130Z 17003KT 07/M00 A3011 RMK A01 T00711003  RH  060%=      5-min Rain = 0
KAOS 180135Z 17003KT 07/M00 A3011 RMK A01 T00711002  RH  060%=      5-min Rain = 0
KAOS 180140Z 17004KT 07/M00 A3011 RMK A01 T00671003  RH  062%=      5-min Rain = 0
KAOS 180145Z 17003KT 07/M00 A3011 RMK A01 T00661003  RH  062%=      5-min Rain = 0
KAOS 180150Z 15002KT 06/M00 A3011 RMK A01 T00641003  RH  063%=      5-min Rain = 0
KAOS 180155Z 13002KT 07/M00 A3011 RMK A01 T00651001  RH  063%=      5-min Rain = 0
KAOS 180200Z 11002KT 06/M01 A3011 RMK A01 T00641007  RH  061%=      5-min Rain = 0
KAOS 180205Z 12001KT 06/M01 A3011 RMK A01 T00601009  RH  062%=      5-min Rain = 0
KAOS 180210Z 11001KT 06/M01 A3011 RMK A01 T00611008  RH  062%=      5-min Rain = 0
KAOS 180215Z 09000KT 06/M01 A3012 RMK A01 T00601009  RH  062%=      5-min Rain = 0
KAOS 180220Z 00000KT 06/M01 A3012 RMK A01 T00601007  RH  063%=      5-min Rain = 0
KAOS 180225Z 14001KT 06/M01 A3011 RMK A01 T00601008  RH  062%=      5-min Rain = 0
KAOS 180230Z 12002KT 06/M01 A3011 RMK A01 T00621006  RH  062%=      5-min Rain = 0
KAOS 180235Z 12002KT 06/M02 A3012 RMK A01 T00551015  RH  061%=      5-min Rain = 0
KAOS 180240Z 12003KT 05/M01 A3012 RMK A01 T00511011  RH  065%=      5-min Rain = 0
KAOS 180245Z 12003KT 05/M01 A3012 RMK A01 T00471007  RH  069%=      5-min Rain = 0
KAOS 180250Z 14002KT 05/M01 A3012 RMK A01 T00501008  RH  067%=      5-min Rain = 0
KAOS 180255Z 14002KT 05/M01 A3012 RMK A01 T00491013  RH  065%=      5-min Rain = 0
KAOS 180300Z 13003KT 05/M01 A3012 RMK A01 T00461014  RH  066%=      5-min Rain = 0
KAOS 180305Z 13003KT 05/M01 A3012 RMK A01 T00471007  RH  069%=      5-min Rain = 0
KAOS 180310Z 14003KT 05/M01 A3012 RMK A01 T00501005  RH  068%=      5-min Rain = 0
KAOS 180315Z 15003KT 05/M00 A3012 RMK A01 T00531004  RH  067%=      5-min Rain = 0
KAOS 180320Z 14002KT 05/M00 A3012 RMK A01 T00531004  RH  067%=      5-min Rain = 0
KAOS 180325Z 14002KT 05/M00 A3012 RMK A01 T00531004  RH  067%=      5-min Rain = 0
KAOS 180330Z 17003KT 05/M00 A3011 RMK A01 T00521004  RH  068%=      5-min Rain = 0
KAOS 180335Z 18003KT 05/M01 A3011 RMK A01 T00491006  RH  068%=      5-min Rain = 0
KAOS 180340Z 18003KT 05/M00 A3011 RMK A01 T00481004  RH  070%=      5-min Rain = 0
KAOS 180345Z 18003KT 05/00 A3011 RMK A01 T00510000  RH  071%=      5-min Rain = 0
KAOS 180350Z 19004KT 06/00 A3011 RMK A01 T00550003  RH  070%=      5-min Rain = 0
KAOS 180355Z 20004KT 06/00 A3011 RMK A01 T00580003  RH  069%=      5-min Rain = 0
KAOS 180400Z 21004KT 05/00 A3011 RMK A01 T005400-0  RH  069%=      5-min Rain = 0
KAOS 180405Z 21005KT 05/M00 A3012 RMK A01 T00501003  RH  069%=      5-min Rain = 0
KAOS 180410Z 21005KT 05/M00 A3011 RMK A01 T00491003  RH  070%=      5-min Rain = 0
KAOS 180415Z 20002KT 05/M00 A3011 RMK A01 T00491004  RH  069%=      5-min Rain = 0
KAOS 180420Z 20003KT 05/M01 A3011 RMK A01 T00471006  RH  069%=      5-min Rain = 0
KAOS 180425Z 20003KT 04/M01 A3011 RMK A01 T00441008  RH  070%=      5-min Rain = 0
KAOS 180430Z 21003KT 04/M01 A3011 RMK A01 T00421008  RH  071%=      5-min Rain = 0
KAOS 180435Z 21004KT 04/M01 A3011 RMK A01 T00401008  RH  072%=      5-min Rain = 0
KAOS 180440Z 22003KT 04/M01 A3011 RMK A01 T00401009  RH  071%=      5-min Rain = 0
KAOS 180445Z 23003KT 04/M01 A3011 RMK A01 T00381010  RH  072%=      5-min Rain = 0
KAOS 180450Z 22003KT 04/M01 A3011 RMK A01 T00391006  RH  073%=      5-min Rain = 0
KAOS 180455Z 22003KT 05/M01 A3011 RMK A01 T00451005  RH  071%=      5-min Rain = 0
KAOS 180500Z 23003KT 04/M01 A3011 RMK A01 T00441006  RH  071%=      5-min Rain = 0
KAOS 180505Z 24002KT 04/M01 A301 RMK A01 T00431006  RH  071%=      5-min Rain = 0
KAOS 180510Z 21002KT 04/M01 A301 RMK A01 T00411007  RH  071%=      5-min Rain = 0
KAOS 180515Z 21002KT 04/M01 A301 RMK A01 T00431007  RH  071%=      5-min Rain = 0
KAOS 180520Z 22002KT 04/M01 A301 RMK A01 T00391010  RH  071%=      5-min Rain = 0
KAOS 180525Z 23003KT 04/M01 A301 RMK A01 T00381008  RH  073%=      5-min Rain = 0
KAOS 180530Z 23003KT 04/M01 A3009 RMK A01 T00401006  RH  073%=      5-min Rain = 0
KAOS 180535Z 22003KT 04/M01 A3009 RMK A01 T00411006  RH  072%=      5-min Rain = 0
KAOS 180540Z 23002KT 04/M01 A301 RMK A01 T00401006  RH  072%=      5-min Rain = 0
KAOS 180545Z 23002KT 04/M01 A3009 RMK A01 T00401006  RH  073%=      5-min Rain = 0
KAOS 180550Z 23002KT 04/M01 A3009 RMK A01 T00391007  RH  073%=      5-min Rain = 0
KAOS 180555Z 23003KT 04/M01 A3009 RMK A01 T00391007  RH  073%=      5-min Rain = 0

Page generated in 0.0091 seconds.